sensor_id;sensor_type;location;lat;lon;timestamp;pressure;altitude;pressure_sealevel;temperature;humidity
78679;BME280;67994;59.334;13.528;2023-11-18T00:00:00;102000.0;;;-3.3;86.1
78679;BME280;67994;59.334;13.528;2023-11-18T00:01:00;102000.0;;;-3.4;86.0
78679;BME280;67994;59.334;13.528;2023-11-18T00:02:00;102000.0;;;-3.2;86.4
78679;BME280;67994;59.334;13.528;2023-11-18T00:03:00;102000.0;;;-3.3;86.1
78679;BME280;67994;59.334;13.528;2023-11-18T00:04:00;102000.0;;;-3.3;86.3
78679;BME280;67994;59.334;13.528;2023-11-18T00:05:00;102000.0;;;-3.5;86.3
78679;BME280;67994;59.334;13.528;2023-11-18T00:06:00;102000.0;;;-3.5;85.3
78679;BME280;67994;59.334;13.528;2023-11-18T00:07:00;102000.0;;;-3.4;85.9
78679;BME280;67994;59.334;13.528;2023-11-18T00:08:00;102000.0;;;-3.4;86.1
78679;BME280;67994;59.334;13.528;2023-11-18T00:09:00;102000.0;;;-3.4;85.7
78679;BME280;67994;59.334;13.528;2023-11-18T00:10:00;102000.0;;;-3.3;86.1
78679;BME280;67994;59.334;13.528;2023-11-18T00:11:00;102000.0;;;-3.3;86.0
78679;BME280;67994;59.334;13.528;2023-11-18T00:12:00;102000.0;;;-3.3;85.4
78679;BME280;67994;59.334;13.528;2023-11-18T00:13:00;102000.0;;;-3.4;85.5
78679;BME280;67994;59.334;13.528;2023-11-18T00:14:00;102000.0;;;-3.4;85.3
78679;BME280;67994;59.334;13.528;2023-11-18T00:15:00;102000.0;;;-3.4;85.6
78679;BME280;67994;59.334;13.528;2023-11-18T00:16:00;102000.0;;;-3.4;85.8
78679;BME280;67994;59.334;13.528;2023-11-18T00:17:00;102000.0;;;-3.4;85.7
78679;BME280;67994;59.334;13.528;2023-11-18T00:18:00;102000.0;;;-3.5;85.7
78679;BME280;67994;59.334;13.528;2023-11-18T00:19:00;102000.0;;;-3.5;85.4
78679;BME280;67994;59.334;13.528;2023-11-18T00:20:00;102000.0;;;-3.5;85.4
78679;BME280;67994;59.334;13.528;2023-11-18T00:21:00;102000.0;;;-3.6;85.6
78679;BME280;67994;59.334;13.528;2023-11-18T00:22:00;102000.0;;;-3.5;85.7
78679;BME280;67994;59.334;13.528;2023-11-18T00:23:00;102000.0;;;-3.5;85.6
78679;BME280;67994;59.334;13.528;2023-11-18T00:24:00;102000.0;;;-3.5;85.4
78679;BME280;67994;59.334;13.528;2023-11-18T00:25:00;102000.0;;;-3.6;85.4
78679;BME280;67994;59.334;13.528;2023-11-18T00:26:00;102000.0;;;-3.5;85.7
78679;BME280;67994;59.334;13.528;2023-11-18T00:27:00;102000.0;;;-3.6;85.3
78679;BME280;67994;59.334;13.528;2023-11-18T00:28:00;102000.0;;;-3.6;85.4
78679;BME280;67994;59.334;13.528;2023-11-18T00:29:00;102000.0;;;-3.6;85.5
78679;BME280;67994;59.334;13.528;2023-11-18T00:30:00;102000.0;;;-3.6;85.5
78679;BME280;67994;59.334;13.528;2023-11-18T00:31:00;102000.0;;;-3.5;86.2
78679;BME280;67994;59.334;13.528;2023-11-18T00:32:00;102000.0;;;-3.4;85.9
78679;BME280;67994;59.334;13.528;2023-11-18T00:33:00;102000.0;;;-3.4;86.3
78679;BME280;67994;59.334;13.528;2023-11-18T00:34:00;102000.0;;;-3.4;85.9
78679;BME280;67994;59.334;13.528;2023-11-18T00:35:00;102000.0;;;-3.4;85.6
78679;BME280;67994;59.334;13.528;2023-11-18T00:36:00;102000.0;;;-3.4;85.6
78679;BME280;67994;59.334;13.528;2023-11-18T00:37:00;102000.0;;;-3.4;85.3
78679;BME280;67994;59.334;13.528;2023-11-18T00:38:00;102000.0;;;-3.5;85.0
78679;BME280;67994;59.334;13.528;2023-11-18T00:39:00;102000.0;;;-3.4;85.1
78679;BME280;67994;59.334;13.528;2023-11-18T00:40:00;102000.0;;;-3.4;85.2
78679;BME280;67994;59.334;13.528;2023-11-18T00:41:00;102000.0;;;-3.5;85.3
78679;BME280;67994;59.334;13.528;2023-11-18T00:42:00;102000.0;;;-3.5;85.7
78679;BME280;67994;59.334;13.528;2023-11-18T00:43:00;102000.0;;;-3.4;85.3
78679;BME280;67994;59.334;13.528;2023-11-18T00:44:00;102000.0;;;-3.4;85.1
78679;BME280;67994;59.334;13.528;2023-11-18T00:45:00;102000.0;;;-3.4;85.6
78679;BME280;67994;59.334;13.528;2023-11-18T00:46:00;102000.0;;;-3.5;85.8
78679;BME280;67994;59.334;13.528;2023-11-18T00:47:00;102000.0;;;-3.5;84.6
78679;BME280;67994;59.334;13.528;2023-11-18T00:48:00;102000.0;;;-3.7;85.3
78679;BME280;67994;59.334;13.528;2023-11-18T00:49:00;102000.0;;;-3.7;84.8
78679;BME280;67994;59.334;13.528;2023-11-18T00:50:00;102000.0;;;-3.7;84.9
78679;BME280;67994;59.334;13.528;2023-11-18T00:51:00;102000.0;;;-3.5;86.0
78679;BME280;67994;59.334;13.528;2023-11-18T00:52:00;102000.0;;;-3.4;85.3
78679;BME280;67994;59.334;13.528;2023-11-18T00:53:00;102000.0;;;-3.5;85.4
78679;BME280;67994;59.334;13.528;2023-11-18T00:54:00;102000.0;;;-3.4;85.4
78679;BME280;67994;59.334;13.528;2023-11-18T00:55:00;102000.0;;;-3.4;85.3
78679;BME280;67994;59.334;13.528;2023-11-18T00:56:01;102000.0;;;-3.4;85.3
78679;BME280;67994;59.334;13.528;2023-11-18T00:57:00;102000.0;;;-3.5;84.8
78679;BME280;67994;59.334;13.528;2023-11-18T00:58:00;102000.0;;;-3.7;84.9
78679;BME280;67994;59.334;13.528;2023-11-18T00:59:00;102000.0;;;-3.6;85.3
78679;BME280;67994;59.334;13.528;2023-11-18T01:00:00;102000.0;;;-3.6;85.3
78679;BME280;67994;59.334;13.528;2023-11-18T01:01:00;102000.0;;;-3.5;85.4
78679;BME280;67994;59.334;13.528;2023-11-18T01:02:00;102000.0;;;-3.5;85.2
78679;BME280;67994;59.334;13.528;2023-11-18T01:03:00;102000.0;;;-3.5;85.3
78679;BME280;67994;59.334;13.528;2023-11-18T01:04:00;102000.0;;;-3.5;85.7
78679;BME280;67994;59.334;13.528;2023-11-18T01:05:00;102000.0;;;-3.7;84.8
78679;BME280;67994;59.334;13.528;2023-11-18T01:06:00;102000.0;;;-3.7;84.9
78679;BME280;67994;59.334;13.528;2023-11-18T01:07:00;102000.0;;;-3.6;85.3
78679;BME280;67994;59.334;13.528;2023-11-18T01:08:00;102000.0;;;-3.5;85.3
78679;BME280;67994;59.334;13.528;2023-11-18T01:09:00;102000.0;;;-3.6;85.2
78679;BME280;67994;59.334;13.528;2023-11-18T01:10:00;102000.0;;;-3.5;85.1
78679;BME280;67994;59.334;13.528;2023-11-18T01:11:00;102000.0;;;-3.5;85.0
78679;BME280;67994;59.334;13.528;2023-11-18T01:12:00;102000.0;;;-3.5;84.7
78679;BME280;67994;59.334;13.528;2023-11-18T01:13:00;102000.0;;;-3.6;85.2
78679;BME280;67994;59.334;13.528;2023-11-18T01:14:00;102000.0;;;-3.6;85.3
78679;BME280;67994;59.334;13.528;2023-11-18T01:15:00;102000.0;;;-3.5;85.4
78679;BME280;67994;59.334;13.528;2023-11-18T01:16:00;102000.0;;;-3.5;85.4
78679;BME280;67994;59.334;13.528;2023-11-18T01:17:00;102000.0;;;-3.6;85.3
78679;BME280;67994;59.334;13.528;2023-11-18T01:18:00;102000.0;;;-3.6;84.9
78679;BME280;67994;59.334;13.528;2023-11-18T01:19:00;102000.0;;;-3.6;85.0
78679;BME280;67994;59.334;13.528;2023-11-18T01:20:00;102000.0;;;-3.4;85.3
78679;BME280;67994;59.334;13.528;2023-11-18T01:21:00;102000.0;;;-3.4;85.3
78679;BME280;67994;59.334;13.528;2023-11-18T01:22:00;102000.0;;;-3.4;84.8
78679;BME280;67994;59.334;13.528;2023-11-18T01:23:00;102000.0;;;-3.4;84.8
78679;BME280;67994;59.334;13.528;2023-11-18T01:24:00;102000.0;;;-3.5;84.3
78679;BME280;67994;59.334;13.528;2023-11-18T01:25:00;102000.0;;;-3.5;84.5
78679;BME280;67994;59.334;13.528;2023-11-18T01:26:00;102000.0;;;-3.4;84.6
78679;BME280;67994;59.334;13.528;2023-11-18T01:27:00;102000.0;;;-3.4;84.6
78679;BME280;67994;59.334;13.528;2023-11-18T01:28:00;102000.0;;;-3.4;84.6
78679;BME280;67994;59.334;13.528;2023-11-18T01:29:00;102000.0;;;-3.4;84.6
78679;BME280;67994;59.334;13.528;2023-11-18T01:30:00;102000.0;;;-3.5;84.6
78679;BME280;67994;59.334;13.528;2023-11-18T01:31:00;102000.0;;;-3.5;84.1
78679;BME280;67994;59.334;13.528;2023-11-18T01:32:00;102000.0;;;-3.4;84.6
78679;BME280;67994;59.334;13.528;2023-11-18T01:33:00;102000.0;;;-3.4;84.5
78679;BME280;67994;59.334;13.528;2023-11-18T01:34:00;102000.0;;;-3.4;84.2
78679;BME280;67994;59.334;13.528;2023-11-18T01:35:00;102000.0;;;-3.4;84.2
78679;BME280;67994;59.334;13.528;2023-11-18T01:36:00;102000.0;;;-3.4;84.6
78679;BME280;67994;59.334;13.528;2023-11-18T01:37:00;102000.0;;;-3.4;84.6
78679;BME280;67994;59.334;13.528;2023-11-18T01:38:00;102000.0;;;-3.4;84.6
78679;BME280;67994;59.334;13.528;2023-11-18T01:39:00;102000.0;;;-3.4;84.4
78679;BME280;67994;59.334;13.528;2023-11-18T01:40:00;102000.0;;;-3.4;84.1
78679;BME280;67994;59.334;13.528;2023-11-18T01:41:00;102000.0;;;-3.4;84.2
78679;BME280;67994;59.334;13.528;2023-11-18T01:42:00;102000.0;;;-3.5;84.1
78679;BME280;67994;59.334;13.528;2023-11-18T01:43:00;102000.0;;;-3.5;84.0
78679;BME280;67994;59.334;13.528;2023-11-18T01:44:00;102000.0;;;-3.5;84.1
78679;BME280;67994;59.334;13.528;2023-11-18T01:45:00;102000.0;;;-3.5;84.4
78679;BME280;67994;59.334;13.528;2023-11-18T01:46:02;102000.0;;;-3.5;84.0
78679;BME280;67994;59.334;13.528;2023-11-18T01:47:01;102000.0;;;-3.5;84.4
78679;BME280;67994;59.334;13.528;2023-11-18T01:48:00;102000.0;;;-3.4;84.4
78679;BME280;67994;59.334;13.528;2023-11-18T01:49:00;102000.0;;;-3.5;84.3
78679;BME280;67994;59.334;13.528;2023-11-18T01:50:00;102000.0;;;-3.5;84.3
78679;BME280;67994;59.334;13.528;2023-11-18T01:51:01;102000.0;;;-3.4;84.6
78679;BME280;67994;59.334;13.528;2023-11-18T01:52:00;102000.0;;;-3.4;84.4
78679;BME280;67994;59.334;13.528;2023-11-18T01:53:00;102000.0;;;-3.4;84.2
78679;BME280;67994;59.334;13.528;2023-11-18T01:54:00;102000.0;;;-3.5;84.2
78679;BME280;67994;59.334;13.528;2023-11-18T01:55:00;102000.0;;;-3.4;84.0
78679;BME280;67994;59.334;13.528;2023-11-18T01:56:00;102000.0;;;-3.5;84.3
78679;BME280;67994;59.334;13.528;2023-11-18T01:57:00;102000.0;;;-3.5;84.1
78679;BME280;67994;59.334;13.528;2023-11-18T01:58:00;102000.0;;;-3.5;84.1
78679;BME280;67994;59.334;13.528;2023-11-18T01:59:00;102000.0;;;-3.5;84.2
78679;BME280;67994;59.334;13.528;2023-11-18T02:00:01;102000.0;;;-3.5;83.8
78679;BME280;67994;59.334;13.528;2023-11-18T02:01:00;102000.0;;;-3.5;84.0
78679;BME280;67994;59.334;13.528;2023-11-18T02:02:01;102000.0;;;-3.6;84.0
78679;BME280;67994;59.334;13.528;2023-11-18T02:03:00;102000.0;;;-3.6;84.0
78679;BME280;67994;59.334;13.528;2023-11-18T02:04:00;102000.0;;;-3.6;84.2
78679;BME280;67994;59.334;13.528;2023-11-18T02:05:00;102000.0;;;-3.6;84.1
78679;BME280;67994;59.334;13.528;2023-11-18T02:06:00;102000.0;;;-3.5;84.3
78679;BME280;67994;59.334;13.528;2023-11-18T02:07:00;102000.0;;;-3.7;84.4
78679;BME280;67994;59.334;13.528;2023-11-18T02:08:01;102000.0;;;-3.6;84.3
78679;BME280;67994;59.334;13.528;2023-11-18T02:09:00;102000.0;;;-3.6;84.2
78679;BME280;67994;59.334;13.528;2023-11-18T02:10:00;102000.0;;;-3.6;84.2
78679;BME280;67994;59.334;13.528;2023-11-18T02:11:05;102000.0;;;-3.6;84.6
78679;BME280;67994;59.334;13.528;2023-11-18T02:12:08;102000.0;;;-3.5;84.6
78679;BME280;67994;59.334;13.528;2023-11-18T02:13:06;102000.0;;;-3.6;84.2
78679;BME280;67994;59.334;13.528;2023-11-18T02:14:01;102000.0;;;-3.6;83.8
78679;BME280;67994;59.334;13.528;2023-11-18T02:15:02;102000.0;;;-3.6;83.9
78679;BME280;67994;59.334;13.528;2023-11-18T02:16:04;102000.0;;;-3.6;84.1
78679;BME280;67994;59.334;13.528;2023-11-18T02:17:02;102000.0;;;-3.6;84.0
78679;BME280;67994;59.334;13.528;2023-11-18T02:18:02;102000.0;;;-3.7;84.0
78679;BME280;67994;59.334;13.528;2023-11-18T02:19:01;102000.0;;;-3.6;84.0
78679;BME280;67994;59.334;13.528;2023-11-18T02:20:00;102000.0;;;-3.6;84.0
78679;BME280;67994;59.334;13.528;2023-11-18T02:21:00;102000.0;;;-3.6;84.1
78679;BME280;67994;59.334;13.528;2023-11-18T02:22:00;102000.0;;;-3.6;84.2
78679;BME280;67994;59.334;13.528;2023-11-18T02:23:00;102000.0;;;-3.5;84.6
78679;BME280;67994;59.334;13.528;2023-11-18T02:24:00;102000.0;;;-3.6;84.6
78679;BME280;67994;59.334;13.528;2023-11-18T02:25:01;102000.0;;;-3.7;84.2
78679;BME280;67994;59.334;13.528;2023-11-18T02:26:00;102000.0;;;-3.7;84.4
78679;BME280;67994;59.334;13.528;2023-11-18T02:27:00;102000.0;;;-3.7;84.1
78679;BME280;67994;59.334;13.528;2023-11-18T02:28:00;102000.0;;;-3.6;84.1
78679;BME280;67994;59.334;13.528;2023-11-18T02:29:00;102000.0;;;-3.6;84.4
78679;BME280;67994;59.334;13.528;2023-11-18T02:30:00;102000.0;;;-3.5;84.4
78679;BME280;67994;59.334;13.528;2023-11-18T02:31:05;102000.0;;;-3.6;84.6
78679;BME280;67994;59.334;13.528;2023-11-18T02:32:04;102000.0;;;-3.6;84.6
78679;BME280;67994;59.334;13.528;2023-11-18T02:33:03;102000.0;;;-3.5;84.3
78679;BME280;67994;59.334;13.528;2023-11-18T02:34:02;102000.0;;;-3.5;84.2
78679;BME280;67994;59.334;13.528;2023-11-18T02:35:04;102000.0;;;-3.5;84.3
78679;BME280;67994;59.334;13.528;2023-11-18T02:36:06;102000.0;;;-3.5;84.4
78679;BME280;67994;59.334;13.528;2023-11-18T02:37:03;102000.0;;;-3.5;84.0
78679;BME280;67994;59.334;13.528;2023-11-18T02:38:01;102000.0;;;-3.5;84.0
78679;BME280;67994;59.334;13.528;2023-11-18T02:39:01;102000.0;;;-3.5;83.9
78679;BME280;67994;59.334;13.528;2023-11-18T02:40:03;102000.0;;;-3.5;84.1
78679;BME280;67994;59.334;13.528;2023-11-18T02:41:04;102000.0;;;-3.4;84.3
78679;BME280;67994;59.334;13.528;2023-11-18T02:42:02;102000.0;;;-3.4;84.4
78679;BME280;67994;59.334;13.528;2023-11-18T02:43:01;102000.0;;;-3.4;84.0
78679;BME280;67994;59.334;13.528;2023-11-18T02:44:00;102000.0;;;-3.4;84.0
78679;BME280;67994;59.334;13.528;2023-11-18T02:45:01;102000.0;;;-3.4;84.0
78679;BME280;67994;59.334;13.528;2023-11-18T02:46:00;102000.0;;;-3.5;84.4
78679;BME280;67994;59.334;13.528;2023-11-18T02:47:00;102000.0;;;-3.4;84.9
78679;BME280;67994;59.334;13.528;2023-11-18T02:48:00;102000.0;;;-3.5;84.7
78679;BME280;67994;59.334;13.528;2023-11-18T02:49:00;102000.0;;;-3.5;84.7
78679;BME280;67994;59.334;13.528;2023-11-18T02:50:00;102000.0;;;-3.5;84.4
78679;BME280;67994;59.334;13.528;2023-11-18T02:51:00;102000.0;;;-3.4;84.6
78679;BME280;67994;59.334;13.528;2023-11-18T02:52:00;102000.0;;;-3.4;84.3
78679;BME280;67994;59.334;13.528;2023-11-18T02:53:00;102000.0;;;-3.5;84.5
78679;BME280;67994;59.334;13.528;2023-11-18T02:54:00;102000.0;;;-3.4;84.7
78679;BME280;67994;59.334;13.528;2023-11-18T02:55:00;102000.0;;;-3.4;84.3
78679;BME280;67994;59.334;13.528;2023-11-18T02:56:00;102000.0;;;-3.5;84.0
78679;BME280;67994;59.334;13.528;2023-11-18T02:57:00;102000.0;;;-3.4;84.2
78679;BME280;67994;59.334;13.528;2023-11-18T02:58:00;102000.0;;;-3.4;84.7
78679;BME280;67994;59.334;13.528;2023-11-18T02:59:00;102000.0;;;-3.4;84.3
78679;BME280;67994;59.334;13.528;2023-11-18T03:00:00;102000.0;;;-3.4;84.2
78679;BME280;67994;59.334;13.528;2023-11-18T03:01:00;102000.0;;;-3.4;84.3
78679;BME280;67994;59.334;13.528;2023-11-18T03:02:00;102000.0;;;-3.3;84.6
78679;BME280;67994;59.334;13.528;2023-11-18T03:03:00;102000.0;;;-3.3;84.0
78679;BME280;67994;59.334;13.528;2023-11-18T03:04:00;102000.0;;;-3.3;84.2
78679;BME280;67994;59.334;13.528;2023-11-18T03:05:00;102000.0;;;-3.5;84.4
78679;BME280;67994;59.334;13.528;2023-11-18T03:06:00;102000.0;;;-3.5;84.4
78679;BME280;67994;59.334;13.528;2023-11-18T03:07:00;102000.0;;;-3.4;84.4
78679;BME280;67994;59.334;13.528;2023-11-18T03:08:00;102000.0;;;-3.5;84.2
78679;BME280;67994;59.334;13.528;2023-11-18T03:09:00;102000.0;;;-3.4;84.3
78679;BME280;67994;59.334;13.528;2023-11-18T03:10:00;102000.0;;;-3.5;84.3
78679;BME280;67994;59.334;13.528;2023-11-18T03:11:01;102000.0;;;-3.5;84.3
78679;BME280;67994;59.334;13.528;2023-11-18T03:12:00;102000.0;;;-3.6;84.6
78679;BME280;67994;59.334;13.528;2023-11-18T03:13:01;102000.0;;;-3.7;84.3
78679;BME280;67994;59.334;13.528;2023-11-18T03:14:00;102000.0;;;-3.6;84.4
78679;BME280;67994;59.334;13.528;2023-11-18T03:15:00;102000.0;;;-3.5;84.5
78679;BME280;67994;59.334;13.528;2023-11-18T03:16:00;102000.0;;;-3.4;84.5
78679;BME280;67994;59.334;13.528;2023-11-18T03:17:00;102000.0;;;-3.5;84.3
78679;BME280;67994;59.334;13.528;2023-11-18T03:18:00;102000.0;;;-3.4;84.4
78679;BME280;67994;59.334;13.528;2023-11-18T03:19:00;102000.0;;;-3.4;84.4
78679;BME280;67994;59.334;13.528;2023-11-18T03:20:00;102000.0;;;-3.5;84.2
78679;BME280;67994;59.334;13.528;2023-11-18T03:21:00;102000.0;;;-3.5;84.3
78679;BME280;67994;59.334;13.528;2023-11-18T03:22:00;102000.0;;;-3.5;84.3
78679;BME280;67994;59.334;13.528;2023-11-18T03:23:00;102000.0;;;-3.5;84.0
78679;BME280;67994;59.334;13.528;2023-11-18T03:24:00;102000.0;;;-3.6;84.3
78679;BME280;67994;59.334;13.528;2023-11-18T03:25:01;102000.0;;;-3.5;84.2
78679;BME280;67994;59.334;13.528;2023-11-18T03:26:00;102000.0;;;-3.6;84.6
78679;BME280;67994;59.334;13.528;2023-11-18T03:27:00;102000.0;;;-3.6;84.7
78679;BME280;67994;59.334;13.528;2023-11-18T03:28:00;102000.0;;;-3.5;84.7
78679;BME280;67994;59.334;13.528;2023-11-18T03:29:00;102000.0;;;-3.5;84.5
78679;BME280;67994;59.334;13.528;2023-11-18T03:30:00;102000.0;;;-3.5;84.3
78679;BME280;67994;59.334;13.528;2023-11-18T03:31:00;102000.0;;;-3.6;84.3
78679;BME280;67994;59.334;13.528;2023-11-18T03:32:00;102000.0;;;-3.5;84.0
78679;BME280;67994;59.334;13.528;2023-11-18T03:33:00;102000.0;;;-3.5;84.1
78679;BME280;67994;59.334;13.528;2023-11-18T03:34:00;102000.0;;;-3.5;84.3
78679;BME280;67994;59.334;13.528;2023-11-18T03:35:00;102000.0;;;-3.5;84.3
78679;BME280;67994;59.334;13.528;2023-11-18T03:36:00;102000.0;;;-3.5;84.2
78679;BME280;67994;59.334;13.528;2023-11-18T03:37:00;102000.0;;;-3.5;84.1
78679;BME280;67994;59.334;13.528;2023-11-18T03:38:00;102000.0;;;-3.4;84.1
78679;BME280;67994;59.334;13.528;2023-11-18T03:39:00;102000.0;;;-3.4;84.5
78679;BME280;67994;59.334;13.528;2023-11-18T03:40:00;102000.0;;;-3.5;84.1
78679;BME280;67994;59.334;13.528;2023-11-18T03:41:00;102000.0;;;-3.5;84.1
78679;BME280;67994;59.334;13.528;2023-11-18T03:42:00;102000.0;;;-3.6;84.0
78679;BME280;67994;59.334;13.528;2023-11-18T03:43:00;102000.0;;;-3.6;84.2
78679;BME280;67994;59.334;13.528;2023-11-18T03:44:00;102000.0;;;-3.6;84.2
78679;BME280;67994;59.334;13.528;2023-11-18T03:45:00;102000.0;;;-3.6;84.6
78679;BME280;67994;59.334;13.528;2023-11-18T03:46:00;102000.0;;;-3.6;84.7
78679;BME280;67994;59.334;13.528;2023-11-18T03:47:00;102000.0;;;-3.4;84.7
78679;BME280;67994;59.334;13.528;2023-11-18T03:48:00;102000.0;;;-3.4;84.9
78679;BME280;67994;59.334;13.528;2023-11-18T03:49:00;102000.0;;;-3.4;84.9
78679;BME280;67994;59.334;13.528;2023-11-18T03:50:00;102000.0;;;-3.4;84.4
78679;BME280;67994;59.334;13.528;2023-11-18T03:51:01;102000.0;;;-3.4;84.4
78679;BME280;67994;59.334;13.528;2023-11-18T03:52:00;102000.0;;;-3.4;84.1
78679;BME280;67994;59.334;13.528;2023-11-18T03:53:00;102000.0;;;-3.5;83.9
78679;BME280;67994;59.334;13.528;2023-11-18T03:54:00;102000.0;;;-3.5;84.2
78679;BME280;67994;59.334;13.528;2023-11-18T03:55:02;102000.0;;;-3.5;84.5
78679;BME280;67994;59.334;13.528;2023-11-18T03:56:00;102000.0;;;-3.5;84.8
78679;BME280;67994;59.334;13.528;2023-11-18T03:57:00;102000.0;;;-3.7;84.6
78679;BME280;67994;59.334;13.528;2023-11-18T03:58:00;102000.0;;;-3.6;84.4
78679;BME280;67994;59.334;13.528;2023-11-18T03:59:00;102000.0;;;-3.6;84.4
78679;BME280;67994;59.334;13.528;2023-11-18T04:00:00;102000.0;;;-3.5;84.1
78679;BME280;67994;59.334;13.528;2023-11-18T04:01:00;102000.0;;;-3.5;84.5
78679;BME280;67994;59.334;13.528;2023-11-18T04:02:00;102000.0;;;-3.4;84.5
78679;BME280;67994;59.334;13.528;2023-11-18T04:03:00;102000.0;;;-3.5;84.3
78679;BME280;67994;59.334;13.528;2023-11-18T04:04:00;102000.0;;;-3.5;84.7
78679;BME280;67994;59.334;13.528;2023-11-18T04:05:00;102000.0;;;-3.6;85.0
78679;BME280;67994;59.334;13.528;2023-11-18T04:06:00;102000.0;;;-3.5;84.6
78679;BME280;67994;59.334;13.528;2023-11-18T04:07:00;102000.0;;;-3.5;84.6
78679;BME280;67994;59.334;13.528;2023-11-18T04:08:00;102000.0;;;-3.5;84.3
78679;BME280;67994;59.334;13.528;2023-11-18T04:09:00;102000.0;;;-3.5;84.1
78679;BME280;67994;59.334;13.528;2023-11-18T04:10:00;102000.0;;;-3.5;84.4
78679;BME280;67994;59.334;13.528;2023-11-18T04:11:00;102000.0;;;-3.5;84.5
78679;BME280;67994;59.334;13.528;2023-11-18T04:12:00;102000.0;;;-3.5;84.4
78679;BME280;67994;59.334;13.528;2023-11-18T04:13:00;102000.0;;;-3.5;84.4
78679;BME280;67994;59.334;13.528;2023-11-18T04:14:00;102000.0;;;-3.5;84.4
78679;BME280;67994;59.334;13.528;2023-11-18T04:15:00;102000.0;;;-3.4;84.3
78679;BME280;67994;59.334;13.528;2023-11-18T04:16:00;102000.0;;;-3.4;84.2
78679;BME280;67994;59.334;13.528;2023-11-18T04:17:00;102000.0;;;-3.4;84.4
78679;BME280;67994;59.334;13.528;2023-11-18T04:18:00;102000.0;;;-3.5;84.1
78679;BME280;67994;59.334;13.528;2023-11-18T04:19:00;102000.0;;;-3.5;84.3
78679;BME280;67994;59.334;13.528;2023-11-18T04:20:00;102000.0;;;-3.5;84.3
78679;BME280;67994;59.334;13.528;2023-11-18T04:21:00;102000.0;;;-3.6;84.4
78679;BME280;67994;59.334;13.528;2023-11-18T04:22:00;102000.0;;;-3.6;84.9
78679;BME280;67994;59.334;13.528;2023-11-18T04:23:00;102000.0;;;-3.6;84.9
78679;BME280;67994;59.334;13.528;2023-11-18T04:24:00;102000.0;;;-3.6;84.4
78679;BME280;67994;59.334;13.528;2023-11-18T04:25:00;102000.0;;;-3.6;84.4
78679;BME280;67994;59.334;13.528;2023-11-18T04:26:00;102000.0;;;-3.5;85.0
78679;BME280;67994;59.334;13.528;2023-11-18T04:27:00;102000.0;;;-3.5;84.6
78679;BME280;67994;59.334;13.528;2023-11-18T04:28:00;102000.0;;;-3.5;84.4
78679;BME280;67994;59.334;13.528;2023-11-18T04:29:00;102000.0;;;-3.5;84.6
78679;BME280;67994;59.334;13.528;2023-11-18T04:30:00;102000.0;;;-3.5;84.6
78679;BME280;67994;59.334;13.528;2023-11-18T04:31:01;102000.0;;;-3.4;84.3
78679;BME280;67994;59.334;13.528;2023-11-18T04:32:00;102000.0;;;-3.5;84.5
78679;BME280;67994;59.334;13.528;2023-11-18T04:33:00;102000.0;;;-3.4;84.5
78679;BME280;67994;59.334;13.528;2023-11-18T04:34:00;102000.0;;;-3.4;84.2
78679;BME280;67994;59.334;13.528;2023-11-18T04:35:00;102000.0;;;-3.4;84.1
78679;BME280;67994;59.334;13.528;2023-11-18T04:36:00;102000.0;;;-3.4;84.3
78679;BME280;67994;59.334;13.528;2023-11-18T04:37:00;102000.0;;;-3.6;84.7
78679;BME280;67994;59.334;13.528;2023-11-18T04:38:00;102000.0;;;-3.7;84.4
78679;BME280;67994;59.334;13.528;2023-11-18T04:39:01;102000.0;;;-3.6;84.8
78679;BME280;67994;59.334;13.528;2023-11-18T04:40:00;102000.0;;;-3.6;84.8
78679;BME280;67994;59.334;13.528;2023-11-18T04:41:00;102000.0;;;-3.5;84.6
78679;BME280;67994;59.334;13.528;2023-11-18T04:42:00;102000.0;;;-3.7;84.7
78679;BME280;67994;59.334;13.528;2023-11-18T04:43:00;102000.0;;;-3.6;84.5
78679;BME280;67994;59.334;13.528;2023-11-18T04:44:00;102000.0;;;-3.6;84.4
78679;BME280;67994;59.334;13.528;2023-11-18T04:45:00;102000.0;;;-3.6;84.4
78679;BME280;67994;59.334;13.528;2023-11-18T04:46:00;102000.0;;;-3.6;84.1
78679;BME280;67994;59.334;13.528;2023-11-18T04:47:00;102000.0;;;-3.6;83.9
78679;BME280;67994;59.334;13.528;2023-11-18T04:48:00;102000.0;;;-3.7;83.7
78679;BME280;67994;59.334;13.528;2023-11-18T04:49:00;102000.0;;;-3.7;83.7
78679;BME280;67994;59.334;13.528;2023-11-18T04:50:00;102000.0;;;-3.6;84.0
78679;BME280;67994;59.334;13.528;2023-11-18T04:51:00;102000.0;;;-3.6;84.0
78679;BME280;67994;59.334;13.528;2023-11-18T04:52:00;102000.0;;;-3.5;84.0
78679;BME280;67994;59.334;13.528;2023-11-18T04:53:00;102000.0;;;-3.5;84.0
78679;BME280;67994;59.334;13.528;2023-11-18T04:54:00;102000.0;;;-3.5;84.0
78679;BME280;67994;59.334;13.528;2023-11-18T04:55:00;102000.0;;;-3.6;84.3
78679;BME280;67994;59.334;13.528;2023-11-18T04:56:00;102000.0;;;-3.4;84.5
78679;BME280;67994;59.334;13.528;2023-11-18T04:57:00;102000.0;;;-3.6;84.5
78679;BME280;67994;59.334;13.528;2023-11-18T04:58:00;102000.0;;;-3.5;84.5
78679;BME280;67994;59.334;13.528;2023-11-18T04:59:00;102000.0;;;-3.7;85.0
78679;BME280;67994;59.334;13.528;2023-11-18T05:00:00;102000.0;;;-3.7;84.6
78679;BME280;67994;59.334;13.528;2023-11-18T05:01:00;102000.0;;;-3.8;84.6
78679;BME280;67994;59.334;13.528;2023-11-18T05:02:00;102000.0;;;-3.9;84.8
78679;BME280;67994;59.334;13.528;2023-11-18T05:03:01;102000.0;;;-4.0;84.8
78679;BME280;67994;59.334;13.528;2023-11-18T05:04:00;102000.0;;;-3.8;85.1
78679;BME280;67994;59.334;13.528;2023-11-18T05:05:00;102000.0;;;-3.8;84.9
78679;BME280;67994;59.334;13.528;2023-11-18T05:06:00;102000.0;;;-3.7;85.0
78679;BME280;67994;59.334;13.528;2023-11-18T05:07:00;102000.0;;;-3.7;85.0
78679;BME280;67994;59.334;13.528;2023-11-18T05:08:00;102000.0;;;-3.7;84.9
78679;BME280;67994;59.334;13.528;2023-11-18T05:09:00;102000.0;;;-3.7;84.9
78679;BME280;67994;59.334;13.528;2023-11-18T05:10:00;102000.0;;;-3.7;84.9
78679;BME280;67994;59.334;13.528;2023-11-18T05:11:00;102000.0;;;-3.7;84.8
78679;BME280;67994;59.334;13.528;2023-11-18T05:12:00;102000.0;;;-3.8;84.7
78679;BME280;67994;59.334;13.528;2023-11-18T05:13:00;102000.0;;;-3.8;84.9
78679;BME280;67994;59.334;13.528;2023-11-18T05:14:00;102000.0;;;-3.7;85.2
78679;BME280;67994;59.334;13.528;2023-11-18T05:15:00;102000.0;;;-3.7;85.2
78679;BME280;67994;59.334;13.528;2023-11-18T05:16:00;102000.0;;;-3.7;85.2
78679;BME280;67994;59.334;13.528;2023-11-18T05:17:00;102000.0;;;-3.7;85.1
78679;BME280;67994;59.334;13.528;2023-11-18T05:18:00;102000.0;;;-3.7;85.1
78679;BME280;67994;59.334;13.528;2023-11-18T05:19:00;102000.0;;;-3.7;85.2
78679;BME280;67994;59.334;13.528;2023-11-18T05:20:00;102000.0;;;-3.9;85.0
78679;BME280;67994;59.334;13.528;2023-11-18T05:21:01;102000.0;;;-3.9;85.2